KHRO/HRO METAR and TAF weather

Enter ICAO airport designator
Station Type Date Time Source
KHRO METAR 2019/12/08 18:53 UTC NOAA

KHRO 081853Z AUTO 15013KT 10SM CLR 10/04 A2989 RMK AO2 SLP122 T01000044


Station Type Date Time Source
KHRO Decoded METAR 2019/12/08 18:53 UTC NOAA

HARRISON BOONE COUNTY AIRPORT , AR, United States (KHRO) 36-16N 093-09W 417M
Dec 08, 2019 - 01:53 PM EST / 2019.12.08 1853 UTC
Wind: from the SSE (150 degrees) at 15 MPH (13 KT):0
Visibility: 10 mile(s):0
Sky conditions: clear
Temperature: 50.0 F (10.0 C)
Dew Point: 39.9 F (4.4 C)
Relative Humidity: 68%
Pressure (altimeter): 29.89 in. Hg (1012 hPa)
ob: KHRO 081853Z AUTO 15013KT 10SM CLR 10/04 A2989 RMK AO2 SLP122 T01000044
cycle: 19

Station Type Date Time Source
KHRO TAF 2019/12/08 18:22 UTC NOAA

TAF KHRO 081720Z 0818/0918 16015G20KT P6SM BKN100 WS020/21050KT
FM090300 17015G22KT P6SM OVC035 WS020/23043KT
FM091400 22012G17KT P6SM OVC050

Example: see airport list